Time;durP1;ratioP1;P1;durP2;ratioP2;P2;SDS_P1;SDS_P2;PMS_P1;PMS_P2;Temp;Humidity;BMP_temperature;BMP_pressure;BME280_temperature;BME280_humidity;BME280_pressure;Samples;Min_cycle;Max_cycle;Signal;HPM_P1;HPM_P2
2022/03/13 00:00:50;;;;;;;0.10;0.10;;;;;;;;;;4908733;29;20053;-93
2022/03/13 00:03:17;;;;;;;0.30;0.30;;;;;;;;;;4939302;29;20039;-93
2022/03/13 00:05:45;;;;;;;0.10;0.10;;;;;;;;;;4908457;29;20411;-92
2022/03/13 00:08:23;;;;;;;0.45;0.10;;;;;;;;;;4908535;29;20043;-93
2022/03/13 00:10:56;;;;;;;0.10;0.10;;;;;;;;;;4939772;29;20082;-94
2022/03/13 00:13:24;;;;;;;0.10;0.10;;;;;;;;;;4909290;29;20051;-93
2022/03/13 00:15:51;;;;;;;1.02;1.00;;;;;;;;;;4907988;29;20043;-95
2022/03/13 00:18:17;;;;;;;0.10;0.10;;;;;;;;;;4908012;29;20053;-93
2022/03/13 00:20:43;;;;;;;0.10;0.10;;;;;;;;;;4908333;29;20130;-94
2022/03/13 00:23:10;;;;;;;0.17;0.17;;;;;;;;;;4907886;29;20047;-93
2022/03/13 00:25:36;;;;;;;0.10;0.10;;;;;;;;;;4908321;29;20043;-93
2022/03/13 00:28:03;;;;;;;0.10;0.10;;;;;;;;;;4907652;29;20039;-94
2022/03/13 00:30:29;;;;;;;0.10;0.10;;;;;;;;;;4908101;29;20047;-93
2022/03/13 00:32:55;;;;;;;0.10;0.10;;;;;;;;;;4907924;29;20047;-93
2022/03/13 00:35:21;;;;;;;0.85;0.50;;;;;;;;;;4907614;29;20403;-94
2022/03/13 00:37:47;;;;;;;0.20;0.20;;;;;;;;;;4923934;29;20039;-93
2022/03/13 00:40:14;;;;;;;0.10;0.10;;;;;;;;;;4907851;29;20082;-95
2022/03/13 00:42:39;;;;;;;0.10;0.10;;;;;;;;;;4906942;29;20051;-92
2022/03/13 00:45:06;;;;;;;0.40;0.40;;;;;;;;;;4907329;29;20506;-92
2022/03/13 00:47:32;;;;;;;0.10;0.10;;;;;;;;;;4907668;29;20043;-93
2022/03/13 00:49:58;;;;;;;0.10;0.10;;;;;;;;;;4923470;29;20043;-93
2022/03/13 00:52:24;;;;;;;0.10;0.10;;;;;;;;;;4907617;29;20046;-93
2022/03/13 00:54:50;;;;;;;0.10;0.10;;;;;;;;;;4907459;29;20042;-93
2022/03/13 00:57:17;;;;;;;0.10;0.10;;;;;;;;;;4923101;29;20049;-93
2022/03/13 00:59:44;;;;;;;0.10;0.10;;;;;;;;;;4938496;29;20053;-93
2022/03/13 01:02:10;;;;;;;0.13;0.13;;;;;;;;;;4907410;29;20054;-93
2022/03/13 01:04:37;;;;;;;0.10;0.10;;;;;;;;;;4906993;28;20134;-93
2022/03/13 01:07:03;;;;;;;0.10;0.10;;;;;;;;;;4923365;29;20043;-92
2022/03/13 01:09:29;;;;;;;0.10;0.10;;;;;;;;;;4907493;29;20078;-93
2022/03/13 01:11:55;;;;;;;0.32;0.32;;;;;;;;;;4907335;29;20582;-93
2022/03/13 01:14:21;;;;;;;0.30;0.30;;;;;;;;;;4922988;29;20050;-94
2022/03/13 01:16:47;;;;;;;0.10;0.10;;;;;;;;;;4923056;29;20031;-93
2022/03/13 01:19:13;;;;;;;0.10;0.10;;;;;;;;;;4907390;29;20039;-93
2022/03/13 01:21:41;;;;;;;1.55;0.55;;;;;;;;;;4907091;29;20622;-92
2022/03/13 01:24:13;;;;;;;0.10;0.10;;;;;;;;;;4922113;29;20174;-92
2022/03/13 01:26:39;;;;;;;0.28;0.28;;;;;;;;;;4938244;29;20478;-92
2022/03/13 01:29:10;;;;;;;0.10;0.10;;;;;;;;;;4922421;29;20047;-92
2022/03/13 01:31:40;;;;;;;0.10;0.10;;;;;;;;;;4907103;29;20050;-92
2022/03/13 01:34:07;;;;;;;0.10;0.10;;;;;;;;;;4907196;29;20491;-92
2022/03/13 01:36:33;;;;;;;0.10;0.10;;;;;;;;;;4906802;29;20098;-92
2022/03/13 01:39:00;;;;;;;0.20;0.20;;;;;;;;;;4906890;29;20055;-92
2022/03/13 01:41:28;;;;;;;0.10;0.10;;;;;;;;;;4922594;29;20082;-92
2022/03/13 01:43:57;;;;;;;0.20;0.20;;;;;;;;;;4908018;29;20043;-91
2022/03/13 01:46:23;;;;;;;0.20;0.20;;;;;;;;;;4906755;29;20455;-91
2022/03/13 01:48:52;;;;;;;0.10;0.10;;;;;;;;;;4906660;29;20070;-92
2022/03/13 01:51:18;;;;;;;0.10;0.10;;;;;;;;;;4938255;29;20499;-91
2022/03/13 01:53:44;;;;;;;0.10;0.10;;;;;;;;;;4906509;29;20135;-91
2022/03/13 01:56:10;;;;;;;0.65;0.65;;;;;;;;;;4922112;29;20088;-91
2022/03/13 01:58:36;;;;;;;0.10;0.10;;;;;;;;;;4906791;29;20047;-92
2022/03/13 02:01:02;;;;;;;0.32;0.32;;;;;;;;;;4906563;29;20046;-92
2022/03/13 02:03:28;;;;;;;0.10;0.10;;;;;;;;;;4899929;29;20060;-92
2022/03/13 02:05:54;;;;;;;0.22;0.22;;;;;;;;;;4916221;29;20385;-93
2022/03/13 02:08:21;;;;;;;0.10;0.10;;;;;;;;;;4915204;29;20047;-92
2022/03/13 02:10:48;;;;;;;0.20;0.20;;;;;;;;;;4917091;29;20040;-92
2022/03/13 02:13:14;;;;;;;0.30;0.30;;;;;;;;;;4919747;29;20044;-93
2022/03/13 02:15:40;;;;;;;0.20;0.20;;;;;;;;;;4919638;29;20086;-93
2022/03/13 02:18:06;;;;;;;0.10;0.10;;;;;;;;;;4919356;29;20036;-94
2022/03/13 02:20:35;;;;;;;0.10;0.10;;;;;;;;;;4919762;29;20048;-92
2022/03/13 02:23:01;;;;;;;0.20;0.10;;;;;;;;;;4919535;29;20044;-94
2022/03/13 02:25:31;;;;;;;0.10;0.10;;;;;;;;;;4919580;29;20036;-93
2022/03/13 02:27:58;;;;;;;0.10;0.10;;;;;;;;;;4919966;29;20123;-92
2022/03/13 02:30:25;;;;;;;0.10;0.10;;;;;;;;;;4919320;29;20044;-94
2022/03/13 02:32:51;;;;;;;0.10;0.10;;;;;;;;;;4919641;29;20412;-94
2022/03/13 02:35:18;;;;;;;0.10;0.10;;;;;;;;;;4919152;29;20052;-94
2022/03/13 02:37:44;;;;;;;0.15;0.15;;;;;;;;;;4919514;29;20135;-94
2022/03/13 02:40:17;;;;;;;0.10;0.10;;;;;;;;;;4919254;29;20111;-93
2022/03/13 02:42:43;;;;;;;0.10;0.10;;;;;;;;;;4919346;29;20079;-94
2022/03/13 02:45:10;;;;;;;0.10;0.10;;;;;;;;;;4919178;29;20560;-93
2022/03/13 02:47:35;;;;;;;0.10;0.10;;;;;;;;;;4919236;29;20044;-95
2022/03/13 02:50:02;;;;;;;0.10;0.10;;;;;;;;;;4919122;29;20044;-92
2022/03/13 02:52:28;;;;;;;0.10;0.10;;;;;;;;;;4918456;29;20080;-92
2022/03/13 02:54:53;;;;;;;0.22;0.22;;;;;;;;;;4918524;29;20063;-92
2022/03/13 02:57:19;;;;;;;0.32;0.32;;;;;;;;;;4918744;29;20083;-94
2022/03/13 02:59:45;;;;;;;0.20;0.20;;;;;;;;;;4918741;29;20052;-94
2022/03/13 03:02:11;;;;;;;0.20;0.20;;;;;;;;;;4918793;29;20099;-92
2022/03/13 03:04:37;;;;;;;0.17;0.10;;;;;;;;;;4921802;29;20468;-93
2022/03/13 03:07:04;;;;;;;0.10;0.10;;;;;;;;;;4906181;29;20063;-93
2022/03/13 03:09:31;;;;;;;0.20;0.20;;;;;;;;;;4906435;29;20046;-93
2022/03/13 03:12:01;;;;;;;0.10;0.10;;;;;;;;;;4905850;29;20044;-92
2022/03/13 03:14:30;;;;;;;0.10;0.10;;;;;;;;;;4906327;29;20270;-93
2022/03/13 03:16:56;;;;;;;0.22;0.20;;;;;;;;;;4906166;29;20046;-93
2022/03/13 03:19:22;;;;;;;0.10;0.10;;;;;;;;;;4905819;29;20044;-93
2022/03/13 03:21:48;;;;;;;0.20;0.20;;;;;;;;;;4905094;29;20044;-92
2022/03/13 03:24:15;;;;;;;0.10;0.10;;;;;;;;;;4905990;29;20122;-92
2022/03/13 03:26:42;;;;;;;0.10;0.10;;;;;;;;;;4921546;29;20036;-92
2022/03/13 03:29:08;;;;;;;0.17;0.17;;;;;;;;;;4921986;29;20069;-92
2022/03/13 03:31:34;;;;;;;0.10;0.10;;;;;;;;;;4921477;29;20554;-92
2022/03/13 03:33:59;;;;;;;0.20;0.20;;;;;;;;;;4904949;29;20039;-93
2022/03/13 03:36:25;;;;;;;1.10;0.63;;;;;;;;;;4905763;29;20047;-92
2022/03/13 03:38:51;;;;;;;0.10;0.10;;;;;;;;;;4905646;29;20089;-93
2022/03/13 03:41:17;;;;;;;0.15;0.15;;;;;;;;;;4921729;29;20479;-93
2022/03/13 03:43:43;;;;;;;0.10;0.10;;;;;;;;;;4907685;29;20048;-93
2022/03/13 03:46:10;;;;;;;0.10;0.10;;;;;;;;;;4908475;29;20105;-94
2022/03/13 03:48:36;;;;;;;0.20;0.20;;;;;;;;;;4924972;29;20526;-95
2022/03/13 03:51:02;;;;;;;0.13;0.13;;;;;;;;;;4908338;29;20040;-93
2022/03/13 03:53:28;;;;;;;0.10;0.10;;;;;;;;;;4905930;29;20040;-94
2022/03/13 03:55:56;;;;;;;0.10;0.10;;;;;;;;;;4905650;29;20040;-93
2022/03/13 03:58:22;;;;;;;0.60;0.30;;;;;;;;;;4921288;29;20051;-93
2022/03/13 04:00:48;;;;;;;0.10;0.10;;;;;;;;;;4905473;29;20131;-93
2022/03/13 04:03:14;;;;;;;0.20;0.20;;;;;;;;;;4922993;29;20106;-93
2022/03/13 04:05:40;;;;;;;0.10;0.10;;;;;;;;;;4908906;29;20047;-93
2022/03/13 04:08:06;;;;;;;0.10;0.10;;;;;;;;;;4908579;29;20046;-95
2022/03/13 04:10:32;;;;;;;0.70;0.43;;;;;;;;;;4908763;29;20046;-95
2022/03/13 04:12:58;;;;;;;0.10;0.10;;;;;;;;;;4907768;29;20102;-92
2022/03/13 04:15:24;;;;;;;0.10;0.10;;;;;;;;;;4907211;29;20047;-93
2022/03/13 04:17:50;;;;;;;0.20;0.20;;;;;;;;;;4924039;29;20043;-92
2022/03/13 04:20:17;;;;;;;0.20;0.20;;;;;;;;;;4908113;29;20047;-91
2022/03/13 04:22:44;;;;;;;0.10;0.10;;;;;;;;;;4907742;29;20047;-92
2022/03/13 04:25:10;;;;;;;0.10;0.10;;;;;;;;;;4908018;29;20054;-93
2022/03/13 04:27:36;;;;;;;0.10;0.10;;;;;;;;;;4939807;29;20126;-93
2022/03/13 04:30:04;;;;;;;0.10;0.10;;;;;;;;;;4923531;29;20078;-92
2022/03/13 04:32:31;;;;;;;0.17;0.17;;;;;;;;;;4939251;29;20098;-92
2022/03/13 04:34:57;;;;;;;0.30;0.30;;;;;;;;;;4923549;29;20054;-94
2022/03/13 04:37:23;;;;;;;0.15;0.15;;;;;;;;;;4908226;29;20119;-94
2022/03/13 04:39:51;;;;;;;0.10;0.10;;;;;;;;;;4923881;29;20062;-95
2022/03/13 04:42:18;;;;;;;0.10;0.10;;;;;;;;;;4907849;29;20051;-93
2022/03/13 04:44:44;;;;;;;0.70;0.38;;;;;;;;;;4908193;28;20047;-92
2022/03/13 04:47:10;;;;;;;0.40;0.40;;;;;;;;;;4923651;29;20035;-93
2022/03/13 04:49:36;;;;;;;0.10;0.10;;;;;;;;;;4908048;29;20376;-92
2022/03/13 04:52:02;;;;;;;0.10;0.10;;;;;;;;;;4907491;29;20048;-93
2022/03/13 04:54:28;;;;;;;0.03;0.03;;;;;;;;;;4906594;28;20558;-93
2022/03/13 04:56:55;;;;;;;0.10;0.10;;;;;;;;;;4907014;29;20082;-92
2022/03/13 04:59:21;;;;;;;0.10;0.10;;;;;;;;;;4907349;29;20039;-92
2022/03/13 05:01:47;;;;;;;0.10;0.10;;;;;;;;;;4907373;29;20042;-91
2022/03/13 05:04:13;;;;;;;0.10;0.10;;;;;;;;;;4906974;29;20515;-92
2022/03/13 05:06:40;;;;;;;0.25;0.25;;;;;;;;;;4907141;29;20046;-92
2022/03/13 05:09:06;;;;;;;0.10;0.10;;;;;;;;;;4923299;29;20062;-93
2022/03/13 05:11:32;;;;;;;0.10;0.10;;;;;;;;;;4907268;29;20062;-92
2022/03/13 05:13:58;;;;;;;0.10;0.10;;;;;;;;;;4907333;29;20081;-93
2022/03/13 05:16:24;;;;;;;0.20;0.20;;;;;;;;;;4907115;29;20126;-93
2022/03/13 05:18:50;;;;;;;0.10;0.10;;;;;;;;;;4907282;29;20065;-92
2022/03/13 05:21:17;;;;;;;0.10;0.10;;;;;;;;;;4907037;29;20062;-92
2022/03/13 05:23:44;;;;;;;0.10;0.10;;;;;;;;;;4907852;29;20043;-93
2022/03/13 05:26:10;;;;;;;0.10;0.10;;;;;;;;;;4907004;29;20050;-92
2022/03/13 05:28:36;;;;;;;0.20;0.20;;;;;;;;;;4906931;29;20047;-92
2022/03/13 05:31:02;;;;;;;0.10;0.10;;;;;;;;;;4907436;29;20131;-93
2022/03/13 05:33:30;;;;;;;0.10;0.10;;;;;;;;;;4938347;29;20534;-91
2022/03/13 05:35:56;;;;;;;0.10;0.10;;;;;;;;;;4922237;29;20149;-92
2022/03/13 05:38:22;;;;;;;1.25;0.50;;;;;;;;;;4907091;29;20074;-92
2022/03/13 05:40:48;;;;;;;0.10;0.10;;;;;;;;;;4906808;29;20047;-94
2022/03/13 05:43:15;;;;;;;0.10;0.10;;;;;;;;;;4907386;29;20036;-93
2022/03/13 05:45:41;;;;;;;0.00;0.00;;;;;;;;;;4924262;29;20043;-93
2022/03/13 05:48:11;;;;;;;0.10;0.10;;;;;;;;;;4910844;29;20043;-92
2022/03/13 05:50:37;;;;;;;0.10;0.10;;;;;;;;;;4910782;29;20083;-93
2022/03/13 05:53:03;;;;;;;0.10;0.10;;;;;;;;;;4910750;29;20054;-92
2022/03/13 05:55:30;;;;;;;0.10;0.10;;;;;;;;;;4942668;29;20047;-92
2022/03/13 05:57:56;;;;;;;0.10;0.10;;;;;;;;;;4910957;29;20496;-93
2022/03/13 06:00:23;;;;;;;0.10;0.10;;;;;;;;;;4910770;29;20047;-92
2022/03/13 06:02:49;;;;;;;0.10;0.10;;;;;;;;;;4910567;29;20051;-92
2022/03/13 06:05:17;;;;;;;0.10;0.10;;;;;;;;;;4904109;29;20116;-93
2022/03/13 06:07:43;;;;;;;0.10;0.10;;;;;;;;;;4919553;29;20044;-93
2022/03/13 06:10:09;;;;;;;0.13;0.13;;;;;;;;;;4919919;29;20034;-92
2022/03/13 06:12:36;;;;;;;0.10;0.10;;;;;;;;;;4919672;29;20127;-93
2022/03/13 06:15:02;;;;;;;0.10;0.10;;;;;;;;;;4919378;29;20044;-94
2022/03/13 06:17:28;;;;;;;0.10;0.10;;;;;;;;;;4919042;29;20062;-93
2022/03/13 06:19:55;;;;;;;0.10;0.10;;;;;;;;;;4919572;29;20048;-91
2022/03/13 06:22:22;;;;;;;0.10;0.10;;;;;;;;;;4919003;29;20048;-90
2022/03/13 06:24:48;;;;;;;0.20;0.20;;;;;;;;;;4919398;29;20051;-93
2022/03/13 06:27:14;;;;;;;0.10;0.10;;;;;;;;;;4919506;29;20044;-93
2022/03/13 06:29:41;;;;;;;0.10;0.10;;;;;;;;;;4919263;29;20092;-93
2022/03/13 06:32:07;;;;;;;0.10;0.10;;;;;;;;;;4919181;29;20048;-93
2022/03/13 06:34:33;;;;;;;0.10;0.10;;;;;;;;;;4919140;29;20048;-93
2022/03/13 06:36:59;;;;;;;0.28;0.28;;;;;;;;;;4918901;29;20052;-92
2022/03/13 06:39:25;;;;;;;0.10;0.10;;;;;;;;;;4919130;29;20048;-92
2022/03/13 06:41:51;;;;;;;0.10;0.10;;;;;;;;;;4919045;29;20476;-93
2022/03/13 06:44:25;;;;;;;0.10;0.10;;;;;;;;;;4919430;29;20127;-92
2022/03/13 06:46:58;;;;;;;0.30;0.30;;;;;;;;;;4923965;29;20140;-90
2022/03/13 06:49:24;;;;;;;0.10;0.10;;;;;;;;;;4919109;29;20127;-93
2022/03/13 06:51:50;;;;;;;0.68;0.20;;;;;;;;;;4919153;29;20072;-92
2022/03/13 06:54:16;;;;;;;0.20;0.20;;;;;;;;;;4919234;29;20032;-93
2022/03/13 06:56:43;;;;;;;0.10;0.10;;;;;;;;;;4917858;29;20127;-92
2022/03/13 06:59:09;;;;;;;0.10;0.10;;;;;;;;;;4918289;29;20551;-93
2022/03/13 07:01:37;;;;;;;0.10;0.10;;;;;;;;;;4918270;29;20140;-93
2022/03/13 07:04:04;;;;;;;0.28;0.28;;;;;;;;;;4921796;29;20055;-93
2022/03/13 07:06:29;;;;;;;0.10;0.10;;;;;;;;;;4906583;29;20070;-93
2022/03/13 07:08:55;;;;;;;0.10;0.10;;;;;;;;;;4906166;29;20172;-94
2022/03/13 07:11:22;;;;;;;0.30;0.30;;;;;;;;;;4922034;29;20039;-93
2022/03/13 07:13:48;;;;;;;0.10;0.10;;;;;;;;;;4906660;29;20408;-94
2022/03/13 07:16:15;;;;;;;0.45;0.45;;;;;;;;;;4906167;29;20055;-93
2022/03/13 07:18:42;;;;;;;0.55;0.20;;;;;;;;;;4905798;29;20040;-93
2022/03/13 07:21:08;;;;;;;0.32;0.32;;;;;;;;;;4912783;29;20044;-92
2022/03/13 07:23:34;;;;;;;0.10;0.10;;;;;;;;;;4902652;29;20040;-93
2022/03/13 07:26:00;;;;;;;0.22;0.13;;;;;;;;;;4902611;29;20128;-91
2022/03/13 07:28:26;;;;;;;0.17;0.10;;;;;;;;;;4902232;29;20040;-93
2022/03/13 07:31:08;;;;;;;0.10;0.10;;;;;;;;;;4907448;29;20084;-96
2022/03/13 07:33:36;;;;;;;0.10;0.10;;;;;;;;;;4920322;29;20099;-95
2022/03/13 07:36:03;;;;;;;0.13;0.13;;;;;;;;;;4939312;29;20036;-92
2022/03/13 07:38:29;;;;;;;0.10;0.10;;;;;;;;;;4905737;29;20126;-92
2022/03/13 07:40:56;;;;;;;1.30;0.75;;;;;;;;;;4921375;29;20048;-92
2022/03/13 07:43:22;;;;;;;3.30;1.08;;;;;;;;;;4921072;29;20040;-93
2022/03/13 07:45:49;;;;;;;0.10;0.10;;;;;;;;;;4904558;29;20055;-92
2022/03/13 07:48:15;;;;;;;0.20;0.20;;;;;;;;;;4906035;29;20087;-92
2022/03/13 07:50:41;;;;;;;0.20;0.20;;;;;;;;;;4906220;29;20040;-92
2022/03/13 07:53:07;;;;;;;0.20;0.20;;;;;;;;;;4905310;29;20055;-93
2022/03/13 07:55:33;;;;;;;0.20;0.20;;;;;;;;;;4905865;29;20086;-93
2022/03/13 07:57:59;;;;;;;0.28;0.15;;;;;;;;;;4905225;29;20087;-92
2022/03/13 08:00:25;;;;;;;0.10;0.10;;;;;;;;;;4905462;29;20047;-92
2022/03/13 08:02:53;;;;;;;0.15;0.15;;;;;;;;;;4920893;29;20081;-91
2022/03/13 08:05:20;;;;;;;0.13;0.13;;;;;;;;;;4901458;29;20063;-93
2022/03/13 08:07:46;;;;;;;0.20;0.20;;;;;;;;;;4901549;29;20043;-92
2022/03/13 08:10:13;;;;;;;0.20;0.20;;;;;;;;;;4901862;29;20400;-90
2022/03/13 08:12:39;;;;;;;0.20;0.20;;;;;;;;;;4901319;29;20048;-91
2022/03/13 08:15:06;;;;;;;0.20;0.20;;;;;;;;;;4900712;29;20055;-92
2022/03/13 08:17:32;;;;;;;0.15;0.15;;;;;;;;;;4900960;29;20048;-90
2022/03/13 08:19:59;;;;;;;0.10;0.10;;;;;;;;;;4900764;29;20048;-89
2022/03/13 08:22:25;;;;;;;0.20;0.20;;;;;;;;;;4916259;29;20052;-90
2022/03/13 08:24:51;;;;;;;0.55;0.32;;;;;;;;;;4900704;29;20404;-89
2022/03/13 08:27:17;;;;;;;0.10;0.10;;;;;;;;;;4899661;29;20503;-88
2022/03/13 08:29:44;;;;;;;0.28;0.22;;;;;;;;;;4900199;29;20044;-89
2022/03/13 08:32:10;;;;;;;0.10;0.10;;;;;;;;;;4900065;29;20039;-90
2022/03/13 08:34:38;;;;;;;0.20;0.20;;;;;;;;;;4900392;29;20047;-89
2022/03/13 08:37:04;;;;;;;0.13;0.13;;;;;;;;;;4900571;29;20396;-90
2022/03/13 08:39:30;;;;;;;0.10;0.10;;;;;;;;;;4900235;29;20151;-89
2022/03/13 08:41:56;;;;;;;0.10;0.10;;;;;;;;;;4900096;29;20044;-88
2022/03/13 08:44:22;;;;;;;0.20;0.20;;;;;;;;;;4900365;29;20047;-88
2022/03/13 08:46:48;;;;;;;0.20;0.20;;;;;;;;;;4900141;29;20040;-89
2022/03/13 08:49:15;;;;;;;0.10;0.10;;;;;;;;;;4915692;29;20040;-89
2022/03/13 08:51:41;;;;;;;0.10;0.10;;;;;;;;;;4900044;29;20370;-89
2022/03/13 08:54:08;;;;;;;0.20;0.20;;;;;;;;;;4899956;29;20163;-89
2022/03/13 08:56:34;;;;;;;0.10;0.10;;;;;;;;;;4899593;29;20052;-89
2022/03/13 08:59:00;;;;;;;0.10;0.10;;;;;;;;;;4899914;29;20401;-90
2022/03/13 09:01:26;;;;;;;0.35;0.35;;;;;;;;;;4899909;29;20048;-89
2022/03/13 09:03:52;;;;;;;0.25;0.25;;;;;;;;;;4906535;29;20056;-90
2022/03/13 09:06:18;;;;;;;0.10;0.10;;;;;;;;;;4918819;29;20047;-90
2022/03/13 09:08:44;;;;;;;0.20;0.20;;;;;;;;;;4918599;29;20054;-91
2022/03/13 09:11:10;;;;;;;0.25;0.25;;;;;;;;;;4919331;29;20044;-92
2022/03/13 09:13:37;;;;;;;0.20;0.20;;;;;;;;;;4919590;29;20051;-91
2022/03/13 09:16:03;;;;;;;0.10;0.10;;;;;;;;;;4899492;29;20389;-90
2022/03/13 09:18:30;;;;;;;0.10;0.10;;;;;;;;;;4897539;29;20050;-93
2022/03/13 09:20:56;;;;;;;0.52;0.52;;;;;;;;;;4918998;29;20044;-92
2022/03/13 09:23:23;;;;;;;0.30;0.30;;;;;;;;;;4935032;29;20119;-92
2022/03/13 09:25:50;;;;;;;0.10;0.10;;;;;;;;;;4919633;29;20047;-91
2022/03/13 09:28:16;;;;;;;0.10;0.10;;;;;;;;;;4935056;29;20119;-92
2022/03/13 09:30:42;;;;;;;0.45;0.45;;;;;;;;;;4919178;29;20082;-93
2022/03/13 09:33:08;;;;;;;0.30;0.30;;;;;;;;;;4935294;29;20056;-92
2022/03/13 09:35:34;;;;;;;0.20;0.20;;;;;;;;;;4935199;29;20043;-94
2022/03/13 09:38:00;;;;;;;0.20;0.20;;;;;;;;;;4919849;29;20050;-92
2022/03/13 09:40:27;;;;;;;0.10;0.10;;;;;;;;;;4935316;29;20054;-92
2022/03/13 09:42:54;;;;;;;0.25;0.25;;;;;;;;;;4919691;29;20040;-93
2022/03/13 09:45:20;;;;;;;0.10;0.10;;;;;;;;;;4919734;29;20547;-92
2022/03/13 09:47:47;;;;;;;0.10;0.10;;;;;;;;;;4934442;29;20079;-92
2022/03/13 09:50:13;;;;;;;0.10;0.10;;;;;;;;;;4934405;29;20047;-93
2022/03/13 09:52:40;;;;;;;0.20;0.20;;;;;;;;;;4919192;29;20079;-93
2022/03/13 09:55:06;;;;;;;0.50;0.50;;;;;;;;;;4921642;29;20043;-91
2022/03/13 09:57:34;;;;;;;0.20;0.20;;;;;;;;;;4939131;29;20079;-95
2022/03/13 10:00:00;;;;;;;0.20;0.20;;;;;;;;;;4920279;29;20047;-92
2022/03/13 10:02:33;;;;;;;0.15;0.15;;;;;;;;;;4921660;29;20423;-93
2022/03/13 10:04:59;;;;;;;0.20;0.20;;;;;;;;;;4920323;29;20243;-92
2022/03/13 10:07:25;;;;;;;0.15;0.15;;;;;;;;;;4935579;29;20174;-93
2022/03/13 10:09:51;;;;;;;0.20;0.20;;;;;;;;;;4935671;29;20111;-94
2022/03/13 10:12:17;;;;;;;0.20;0.20;;;;;;;;;;4919931;29;20048;-94
2022/03/13 10:14:59;;;;;;;0.10;0.10;;;;;;;;;;4919111;29;20066;-94
2022/03/13 10:17:29;;;;;;;0.13;0.13;;;;;;;;;;4919183;29;20043;-94
2022/03/13 10:19:55;;;;;;;0.17;0.17;;;;;;;;;;4919319;29;20395;-93
2022/03/13 10:22:25;;;;;;;0.10;0.10;;;;;;;;;;4919529;29;20048;-94
2022/03/13 10:24:51;;;;;;;0.10;0.10;;;;;;;;;;4919020;29;20177;-93
2022/03/13 10:27:17;;;;;;;1.05;0.82;;;;;;;;;;4919408;29;20040;-93
2022/03/13 10:29:45;;;;;;;0.10;0.10;;;;;;;;;;4918921;29;20464;-93
2022/03/13 10:32:11;;;;;;;0.28;0.28;;;;;;;;;;4923223;29;20031;-93
2022/03/13 10:34:37;;;;;;;0.20;0.20;;;;;;;;;;4922179;29;20191;-93
2022/03/13 10:37:03;;;;;;;0.20;0.20;;;;;;;;;;4921894;29;20341;-92
2022/03/13 10:39:29;;;;;;;0.40;0.40;;;;;;;;;;4922054;29;20051;-92
2022/03/13 10:42:03;;;;;;;0.45;0.32;;;;;;;;;;4922003;29;20102;-93
2022/03/13 10:44:34;;;;;;;0.10;0.10;;;;;;;;;;4923295;29;20051;-91
2022/03/13 10:47:08;;;;;;;0.20;0.20;;;;;;;;;;4922062;29;20502;-91
2022/03/13 10:49:41;;;;;;;0.20;0.20;;;;;;;;;;4937368;29;20102;-89
2022/03/13 10:52:25;;;;;;;0.45;0.45;;;;;;;;;;4937661;29;20416;-89
2022/03/13 10:54:51;;;;;;;0.10;0.10;;;;;;;;;;4937026;29;20059;-90
2022/03/13 10:57:18;;;;;;;0.20;0.20;;;;;;;;;;4936583;29;20043;-90
2022/03/13 10:59:44;;;;;;;0.20;0.17;;;;;;;;;;4921037;29;20047;-90
2022/03/13 11:02:12;;;;;;;0.10;0.10;;;;;;;;;;4936644;29;20044;-90
2022/03/13 11:04:45;;;;;;;0.20;0.20;;;;;;;;;;4920473;29;20062;-89
2022/03/13 11:07:11;;;;;;;0.10;0.10;;;;;;;;;;4920784;29;20134;-89
2022/03/13 11:09:37;;;;;;;0.45;0.35;;;;;;;;;;4936171;29;20088;-89
2022/03/13 11:12:06;;;;;;;0.10;0.10;;;;;;;;;;4936104;29;20039;-88
2022/03/13 11:14:33;;;;;;;0.75;0.75;;;;;;;;;;4920720;29;20044;-89
2022/03/13 11:16:59;;;;;;;0.20;0.20;;;;;;;;;;4936048;29;20099;-88
2022/03/13 11:19:25;;;;;;;0.15;0.15;;;;;;;;;;4935905;29;20079;-87
2022/03/13 11:21:51;;;;;;;0.30;0.30;;;;;;;;;;4935766;29;20044;-89
2022/03/13 11:24:17;;;;;;;0.10;0.10;;;;;;;;;;4935665;29;20062;-88
2022/03/13 11:26:44;;;;;;;0.10;0.10;;;;;;;;;;4935368;29;20044;-88
2022/03/13 11:29:10;;;;;;;0.20;0.20;;;;;;;;;;4935651;29;20044;-88
2022/03/13 11:31:38;;;;;;;0.73;0.73;;;;;;;;;;4935392;29;20539;-88
2022/03/13 11:34:13;;;;;;;0.20;0.20;;;;;;;;;;4919905;29;20041;-86
2022/03/13 11:36:41;;;;;;;0.20;0.20;;;;;;;;;;4935171;29;20290;-87
2022/03/13 11:39:07;;;;;;;0.40;0.30;;;;;;;;;;4935051;29;20106;-87
2022/03/13 11:41:34;;;;;;;0.10;0.10;;;;;;;;;;4935119;29;20040;-87
2022/03/13 11:44:04;;;;;;;0.10;0.10;;;;;;;;;;4934665;29;20040;-87
2022/03/13 11:46:45;;;;;;;0.10;0.10;;;;;;;;;;4919129;29;20051;-88
2022/03/13 11:49:26;;;;;;;0.10;0.10;;;;;;;;;;4935041;29;20048;-87
2022/03/13 11:52:13;;;;;;;0.13;0.13;;;;;;;;;;4919735;29;20388;-87
2022/03/13 11:55:00;;;;;;;0.30;0.30;;;;;;;;;;4919448;29;20046;-87
2022/03/13 11:57:41;;;;;;;0.10;0.10;;;;;;;;;;4935262;29;20391;-86
2022/03/13 12:00:09;;;;;;;0.20;0.20;;;;;;;;;;4935107;29;20051;-87
2022/03/13 12:02:41;;;;;;;0.20;0.20;;;;;;;;;;4934581;29;20126;-87
2022/03/13 12:05:25;;;;;;;0.38;0.38;;;;;;;;;;4934418;29;20056;-87
2022/03/13 12:07:54;;;;;;;0.10;0.10;;;;;;;;;;4934835;29;20126;-88
2022/03/13 12:10:30;;;;;;;1.35;0.60;;;;;;;;;;4934643;29;20075;-87
2022/03/13 12:13:03;;;;;;;0.25;0.25;;;;;;;;;;4918623;29;20047;-86
2022/03/13 12:15:29;;;;;;;0.10;0.10;;;;;;;;;;4934348;29;20051;-87
2022/03/13 12:17:57;;;;;;;0.20;0.20;;;;;;;;;;4934594;29;20055;-87
2022/03/13 12:20:28;;;;;;;0.10;0.10;;;;;;;;;;4918731;29;20047;-87
2022/03/13 12:22:56;;;;;;;0.30;0.30;;;;;;;;;;4918714;29;20143;-87
2022/03/13 12:25:26;;;;;;;0.38;0.25;;;;;;;;;;4934545;29;20043;-87
2022/03/13 12:27:52;;;;;;;0.38;0.20;;;;;;;;;;4934613;29;20107;-87
2022/03/13 12:30:25;;;;;;;0.98;0.50;;;;;;;;;;4934509;29;20035;-87
2022/03/13 12:32:57;;;;;;;0.25;0.25;;;;;;;;;;4918708;29;20043;-88
2022/03/13 12:35:23;;;;;;;2.13;1.10;;;;;;;;;;4934196;29;20044;-86
2022/03/13 12:37:56;;;;;;;0.40;0.40;;;;;;;;;;4934824;29;20114;-87
2022/03/13 12:40:24;;;;;;;0.25;0.25;;;;;;;;;;4934344;29;20053;-87
2022/03/13 12:42:54;;;;;;;0.77;0.77;;;;;;;;;;4918955;29;20048;-86
2022/03/13 12:45:20;;;;;;;0.10;0.10;;;;;;;;;;4934194;29;20392;-87
2022/03/13 12:47:49;;;;;;;0.55;0.55;;;;;;;;;;4934215;29;20504;-88
2022/03/13 12:50:15;;;;;;;0.30;0.30;;;;;;;;;;4918669;29;20040;-88
2022/03/13 12:52:42;;;;;;;0.32;0.32;;;;;;;;;;4934132;29;20074;-87
2022/03/13 12:55:09;;;;;;;0.25;0.25;;;;;;;;;;4917398;29;20488;-87
2022/03/13 12:57:35;;;;;;;0.55;0.30;;;;;;;;;;4934052;29;20567;-87
2022/03/13 13:00:01;;;;;;;0.32;0.32;;;;;;;;;;4918533;29;20444;-87
2022/03/13 13:02:31;;;;;;;0.20;0.20;;;;;;;;;;4917705;29;20512;-87
2022/03/13 13:04:57;;;;;;;0.80;0.40;;;;;;;;;;4917840;29;20133;-87
2022/03/13 13:07:27;;;;;;;0.10;0.10;;;;;;;;;;4933816;29;20495;-87
2022/03/13 13:09:53;;;;;;;0.80;0.50;;;;;;;;;;4934013;29;20506;-87
2022/03/13 13:12:21;;;;;;;0.20;0.20;;;;;;;;;;4933682;29;20132;-87
2022/03/13 13:14:51;;;;;;;0.20;0.20;;;;;;;;;;4918137;29;20055;-86
2022/03/13 13:17:24;;;;;;;0.30;0.30;;;;;;;;;;4918205;29;20480;-91
2022/03/13 13:19:50;;;;;;;0.63;0.63;;;;;;;;;;4918755;29;20047;-87
2022/03/13 13:22:18;;;;;;;0.15;0.15;;;;;;;;;;4933747;29;20180;-87
2022/03/13 13:24:47;;;;;;;0.10;0.10;;;;;;;;;;4917824;29;20039;-88
2022/03/13 13:27:18;;;;;;;0.30;0.30;;;;;;;;;;4933756;29;20090;-87
2022/03/13 13:29:44;;;;;;;0.32;0.32;;;;;;;;;;4918115;29;20052;-88
2022/03/13 13:32:17;;;;;;;0.22;0.22;;;;;;;;;;4917889;29;20443;-88
2022/03/13 13:35:02;;;;;;;0.77;0.77;;;;;;;;;;4918073;29;20395;-87
2022/03/13 13:37:28;;;;;;;0.50;0.50;;;;;;;;;;4933835;29;20044;-88
2022/03/13 13:40:21;;;;;;;0.20;0.20;;;;;;;;;;4933749;29;20066;-87
2022/03/13 13:42:53;;;;;;;1.73;0.55;;;;;;;;;;4945581;29;20515;-87
2022/03/13 13:45:22;;;;;;;0.10;0.10;;;;;;;;;;4933637;29;20039;-88
2022/03/13 13:47:49;;;;;;;0.40;0.40;;;;;;;;;;4933909;29;20055;-87
2022/03/13 13:50:15;;;;;;;0.20;0.20;;;;;;;;;;4933556;29;20043;-88
2022/03/13 13:52:42;;;;;;;0.20;0.20;;;;;;;;;;4917870;29;20103;-88
2022/03/13 13:55:21;;;;;;;0.10;0.10;;;;;;;;;;4933828;29;20055;-88
2022/03/13 13:57:47;;;;;;;0.38;0.38;;;;;;;;;;4933839;29;20082;-87
2022/03/13 14:00:29;;;;;;;0.10;0.10;;;;;;;;;;4917925;29;20047;-88
2022/03/13 14:02:55;;;;;;;0.10;0.10;;;;;;;;;;4933681;29;20040;-87
2022/03/13 14:05:22;;;;;;;0.57;0.57;;;;;;;;;;4931966;29;20415;-88
2022/03/13 14:07:48;;;;;;;0.13;0.13;;;;;;;;;;4905414;29;20683;-87
2022/03/13 14:10:14;;;;;;;1.30;0.63;;;;;;;;;;4921388;29;20067;-87
2022/03/13 14:12:41;;;;;;;0.20;0.20;;;;;;;;;;4921314;29;20048;-88
2022/03/13 14:15:07;;;;;;;0.20;0.20;;;;;;;;;;4905548;29;20107;-87
2022/03/13 14:17:33;;;;;;;0.20;0.20;;;;;;;;;;4921004;29;20048;-88
2022/03/13 14:19:59;;;;;;;0.20;0.20;;;;;;;;;;4920996;29;20039;-87
2022/03/13 14:22:33;;;;;;;0.20;0.20;;;;;;;;;;4938427;29;20044;-87
2022/03/13 14:24:59;;;;;;;0.20;0.20;;;;;;;;;;4936806;29;20051;-87
2022/03/13 14:27:25;;;;;;;0.20;0.20;;;;;;;;;;4921331;29;20040;-86
2022/03/13 14:29:50;;;;;;;0.13;0.13;;;;;;;;;;4920720;29;20040;-86
2022/03/13 14:32:16;;;;;;;0.10;0.10;;;;;;;;;;4936869;29;20048;-88
2022/03/13 14:34:42;;;;;;;0.20;0.20;;;;;;;;;;4921048;29;20503;-87
2022/03/13 14:37:09;;;;;;;0.50;0.50;;;;;;;;;;4936710;29;20140;-87
2022/03/13 14:39:36;;;;;;;0.82;0.82;;;;;;;;;;4936823;29;20055;-86
2022/03/13 14:42:02;;;;;;;0.25;0.25;;;;;;;;;;4904922;29;20047;-88
2022/03/13 14:44:28;;;;;;;0.20;0.20;;;;;;;;;;4936297;29;20051;-87